sensor_id;sensor_type;location;lat;lon;timestamp;P1;durP1;ratioP1;P2;durP2;ratioP2
2434;SDS011;1228;51.022;6.764;2022-11-04T00:01:55;4.50;;;4.30;;
2434;SDS011;1228;51.022;6.764;2022-11-04T00:04:22;5.53;;;5.20;;
2434;SDS011;1228;51.022;6.764;2022-11-04T00:06:49;5.10;;;4.80;;
2434;SDS011;1228;51.022;6.764;2022-11-04T00:09:19;5.50;;;5.20;;
2434;SDS011;1228;51.022;6.764;2022-11-04T00:11:46;5.20;;;4.90;;
2434;SDS011;1228;51.022;6.764;2022-11-04T00:14:32;4.87;;;4.67;;
2434;SDS011;1228;51.022;6.764;2022-11-04T00:16:58;5.23;;;4.93;;
2434;SDS011;1228;51.022;6.764;2022-11-04T00:19:42;4.70;;;4.50;;
2434;SDS011;1228;51.022;6.764;2022-11-04T00:22:26;5.40;;;4.90;;
2434;SDS011;1228;51.022;6.764;2022-11-04T00:25:11;5.13;;;4.87;;
2434;SDS011;1228;51.022;6.764;2022-11-04T00:28:03;5.50;;;5.00;;
2434;SDS011;1228;51.022;6.764;2022-11-04T00:30:51;5.30;;;5.10;;
2434;SDS011;1228;51.022;6.764;2022-11-04T00:33:17;5.53;;;5.23;;
2434;SDS011;1228;51.022;6.764;2022-11-04T00:35:50;5.47;;;5.20;;
2434;SDS011;1228;51.022;6.764;2022-11-04T00:38:17;5.17;;;4.97;;
2434;SDS011;1228;51.022;6.764;2022-11-04T00:40:43;5.83;;;5.43;;
2434;SDS011;1228;51.022;6.764;2022-11-04T00:43:08;5.40;;;5.10;;
2434;SDS011;1228;51.022;6.764;2022-11-04T00:45:34;4.80;;;4.60;;
2434;SDS011;1228;51.022;6.764;2022-11-04T00:47:59;4.80;;;4.50;;
2434;SDS011;1228;51.022;6.764;2022-11-04T00:50:25;5.00;;;4.73;;
2434;SDS011;1228;51.022;6.764;2022-11-04T00:52:51;4.83;;;4.53;;
2434;SDS011;1228;51.022;6.764;2022-11-04T00:55:26;4.80;;;4.50;;
2434;SDS011;1228;51.022;6.764;2022-11-04T00:57:52;4.50;;;4.30;;
2434;SDS011;1228;51.022;6.764;2022-11-04T01:00:18;4.90;;;4.70;;
2434;SDS011;1228;51.022;6.764;2022-11-04T01:02:44;5.30;;;5.00;;
2434;SDS011;1228;51.022;6.764;2022-11-04T01:05:10;4.80;;;4.50;;
2434;SDS011;1228;51.022;6.764;2022-11-04T01:07:35;4.70;;;4.40;;
2434;SDS011;1228;51.022;6.764;2022-11-04T01:10:02;4.77;;;4.57;;
2434;SDS011;1228;51.022;6.764;2022-11-04T01:12:28;4.90;;;4.60;;
2434;SDS011;1228;51.022;6.764;2022-11-04T01:14:53;4.30;;;4.00;;
2434;SDS011;1228;51.022;6.764;2022-11-04T01:17:19;5.13;;;4.83;;
2434;SDS011;1228;51.022;6.764;2022-11-04T01:19:44;4.37;;;4.17;;
2434;SDS011;1228;51.022;6.764;2022-11-04T01:22:10;4.73;;;4.43;;
2434;SDS011;1228;51.022;6.764;2022-11-04T01:24:35;4.60;;;4.30;;
2434;SDS011;1228;51.022;6.764;2022-11-04T01:27:01;5.03;;;4.73;;
2434;SDS011;1228;51.022;6.764;2022-11-04T01:29:27;5.03;;;4.80;;
2434;SDS011;1228;51.022;6.764;2022-11-04T01:31:52;5.00;;;4.60;;
2434;SDS011;1228;51.022;6.764;2022-11-04T01:34:18;5.13;;;4.73;;
2434;SDS011;1228;51.022;6.764;2022-11-04T01:36:43;4.70;;;4.50;;
2434;SDS011;1228;51.022;6.764;2022-11-04T01:39:10;7.37;;;4.97;;
2434;SDS011;1228;51.022;6.764;2022-11-04T01:41:36;4.47;;;4.27;;
2434;SDS011;1228;51.022;6.764;2022-11-04T01:44:03;4.80;;;4.60;;
2434;SDS011;1228;51.022;6.764;2022-11-04T01:46:48;4.77;;;4.47;;
2434;SDS011;1228;51.022;6.764;2022-11-04T01:51:59;4.50;;;4.30;;
2434;SDS011;1228;51.022;6.764;2022-11-04T01:54:29;4.40;;;4.20;;
2434;SDS011;1228;51.022;6.764;2022-11-04T01:56:55;5.03;;;4.83;;
2434;SDS011;1228;51.022;6.764;2022-11-04T01:59:26;5.10;;;4.70;;
2434;SDS011;1228;51.022;6.764;2022-11-04T02:01:57;5.43;;;4.53;;
2434;SDS011;1228;51.022;6.764;2022-11-04T02:04:22;5.00;;;4.63;;
2434;SDS011;1228;51.022;6.764;2022-11-04T02:06:52;4.67;;;4.47;;
2434;SDS011;1228;51.022;6.764;2022-11-04T02:09:21;4.80;;;4.50;;
2434;SDS011;1228;51.022;6.764;2022-11-04T02:11:48;4.77;;;4.43;;
2434;SDS011;1228;51.022;6.764;2022-11-04T02:14:32;4.57;;;4.27;;
2434;SDS011;1228;51.022;6.764;2022-11-04T02:17:11;5.17;;;4.87;;
2434;SDS011;1228;51.022;6.764;2022-11-04T02:30:59;5.23;;;4.73;;
2434;SDS011;1228;51.022;6.764;2022-11-04T02:33:40;4.97;;;4.77;;
2434;SDS011;1228;51.022;6.764;2022-11-04T02:36:39;7.83;;;4.90;;
2434;SDS011;1228;51.022;6.764;2022-11-04T02:39:09;5.40;;;5.20;;
2434;SDS011;1228;51.022;6.764;2022-11-04T02:47:00;5.67;;;5.20;;
2434;SDS011;1228;51.022;6.764;2022-11-04T02:52:10;5.43;;;5.10;;
2434;SDS011;1228;51.022;6.764;2022-11-04T02:54:48;6.20;;;5.77;;
2434;SDS011;1228;51.022;6.764;2022-11-04T02:57:25;6.43;;;5.70;;
2434;SDS011;1228;51.022;6.764;2022-11-04T03:00:01;6.23;;;5.83;;
2434;SDS011;1228;51.022;6.764;2022-11-04T03:02:32;5.40;;;5.17;;
2434;SDS011;1228;51.022;6.764;2022-11-04T03:04:58;6.50;;;5.83;;
2434;SDS011;1228;51.022;6.764;2022-11-04T03:07:28;7.03;;;5.60;;
2434;SDS011;1228;51.022;6.764;2022-11-04T03:10:04;6.27;;;5.97;;
2434;SDS011;1228;51.022;6.764;2022-11-04T03:13:02;6.00;;;5.70;;
2434;SDS011;1228;51.022;6.764;2022-11-04T03:15:33;6.20;;;5.50;;
2434;SDS011;1228;51.022;6.764;2022-11-04T03:18:05;5.10;;;4.90;;
2434;SDS011;1228;51.022;6.764;2022-11-04T03:20:45;5.93;;;5.37;;
2434;SDS011;1228;51.022;6.764;2022-11-04T03:23:12;6.33;;;5.93;;
2434;SDS011;1228;51.022;6.764;2022-11-04T03:25:45;5.20;;;5.00;;
2434;SDS011;1228;51.022;6.764;2022-11-04T03:28:22;5.40;;;5.00;;
2434;SDS011;1228;51.022;6.764;2022-11-04T03:31:03;5.60;;;5.20;;
2434;SDS011;1228;51.022;6.764;2022-11-04T03:33:44;6.30;;;5.80;;
2434;SDS011;1228;51.022;6.764;2022-11-04T03:36:13;7.77;;;5.47;;
2434;SDS011;1228;51.022;6.764;2022-11-04T03:38:39;4.63;;;4.43;;
2434;SDS011;1228;51.022;6.764;2022-11-04T03:41:08;5.90;;;4.90;;
2434;SDS011;1228;51.022;6.764;2022-11-04T03:43:39;5.17;;;4.97;;
2434;SDS011;1228;51.022;6.764;2022-11-04T03:46:06;5.20;;;5.00;;
2434;SDS011;1228;51.022;6.764;2022-11-04T03:48:32;4.97;;;4.77;;
2434;SDS011;1228;51.022;6.764;2022-11-04T03:50:58;5.27;;;4.97;;
2434;SDS011;1228;51.022;6.764;2022-11-04T03:53:23;4.90;;;4.50;;
2434;SDS011;1228;51.022;6.764;2022-11-04T03:58:58;5.47;;;4.97;;
2434;SDS011;1228;51.022;6.764;2022-11-04T04:02:06;7.13;;;4.67;;
2434;SDS011;1228;51.022;6.764;2022-11-04T04:04:40;4.87;;;4.57;;
2434;SDS011;1228;51.022;6.764;2022-11-04T04:07:20;5.73;;;5.33;;
2434;SDS011;1228;51.022;6.764;2022-11-04T04:10:03;4.93;;;4.63;;
2434;SDS011;1228;51.022;6.764;2022-11-04T04:15:54;4.43;;;4.23;;
2434;SDS011;1228;51.022;6.764;2022-11-04T04:18:44;5.20;;;4.70;;
2434;SDS011;1228;51.022;6.764;2022-11-04T04:21:31;9.17;;;5.57;;
2434;SDS011;1228;51.022;6.764;2022-11-04T04:24:02;5.47;;;5.07;;
2434;SDS011;1228;51.022;6.764;2022-11-04T04:26:49;8.70;;;4.50;;
2434;SDS011;1228;51.022;6.764;2022-11-04T04:29:37;8.20;;;4.97;;
2434;SDS011;1228;51.022;6.764;2022-11-04T04:32:04;5.40;;;4.90;;
2434;SDS011;1228;51.022;6.764;2022-11-04T04:34:31;4.40;;;4.20;;
2434;SDS011;1228;51.022;6.764;2022-11-04T04:39:45;5.00;;;4.80;;
2434;SDS011;1228;51.022;6.764;2022-11-04T04:42:35;5.20;;;4.77;;
2434;SDS011;1228;51.022;6.764;2022-11-04T04:45:22;5.03;;;4.83;;
2434;SDS011;1228;51.022;6.764;2022-11-04T04:47:58;4.60;;;4.40;;
2434;SDS011;1228;51.022;6.764;2022-11-04T04:50:25;5.03;;;4.83;;
2434;SDS011;1228;51.022;6.764;2022-11-04T04:52:55;4.87;;;4.67;;
2434;SDS011;1228;51.022;6.764;2022-11-04T04:55:22;5.30;;;4.90;;
2434;SDS011;1228;51.022;6.764;2022-11-04T04:57:48;4.83;;;4.53;;
2434;SDS011;1228;51.022;6.764;2022-11-04T05:00:15;5.53;;;5.23;;
2434;SDS011;1228;51.022;6.764;2022-11-04T05:02:42;5.37;;;4.60;;
2434;SDS011;1228;51.022;6.764;2022-11-04T05:05:08;4.63;;;4.43;;
2434;SDS011;1228;51.022;6.764;2022-11-04T05:07:35;5.00;;;4.80;;
2434;SDS011;1228;51.022;6.764;2022-11-04T05:10:01;4.83;;;4.63;;
2434;SDS011;1228;51.022;6.764;2022-11-04T05:12:26;5.10;;;4.80;;
2434;SDS011;1228;51.022;6.764;2022-11-04T05:15:12;5.20;;;4.70;;
2434;SDS011;1228;51.022;6.764;2022-11-04T05:17:38;4.63;;;4.43;;
2434;SDS011;1228;51.022;6.764;2022-11-04T05:20:03;5.87;;;5.47;;
2434;SDS011;1228;51.022;6.764;2022-11-04T05:22:29;5.50;;;5.20;;
2434;SDS011;1228;51.022;6.764;2022-11-04T05:24:55;5.60;;;5.30;;
2434;SDS011;1228;51.022;6.764;2022-11-04T05:27:20;5.60;;;5.10;;
2434;SDS011;1228;51.022;6.764;2022-11-04T05:29:46;5.17;;;4.87;;
2434;SDS011;1228;51.022;6.764;2022-11-04T05:32:11;6.93;;;5.23;;
2434;SDS011;1228;51.022;6.764;2022-11-04T05:34:37;5.13;;;4.87;;
2434;SDS011;1228;51.022;6.764;2022-11-04T05:37:02;5.23;;;5.00;;
2434;SDS011;1228;51.022;6.764;2022-11-04T05:39:28;5.63;;;5.33;;
2434;SDS011;1228;51.022;6.764;2022-11-04T05:41:53;6.43;;;6.00;;
2434;SDS011;1228;51.022;6.764;2022-11-04T05:44:19;5.70;;;5.40;;
2434;SDS011;1228;51.022;6.764;2022-11-04T05:46:45;5.53;;;5.23;;
2434;SDS011;1228;51.022;6.764;2022-11-04T05:49:10;6.47;;;5.50;;
2434;SDS011;1228;51.022;6.764;2022-11-04T05:51:36;5.37;;;5.17;;
2434;SDS011;1228;51.022;6.764;2022-11-04T05:54:02;5.43;;;5.10;;
2434;SDS011;1228;51.022;6.764;2022-11-04T05:56:27;5.13;;;4.83;;
2434;SDS011;1228;51.022;6.764;2022-11-04T05:58:53;5.43;;;5.03;;
2434;SDS011;1228;51.022;6.764;2022-11-04T06:01:29;5.60;;;5.20;;
2434;SDS011;1228;51.022;6.764;2022-11-04T06:04:05;5.40;;;5.20;;
2434;SDS011;1228;51.022;6.764;2022-11-04T06:06:32;8.13;;;5.67;;
2434;SDS011;1228;51.022;6.764;2022-11-04T06:08:59;5.50;;;5.03;;
2434;SDS011;1228;51.022;6.764;2022-11-04T06:11:26;5.33;;;5.03;;
2434;SDS011;1228;51.022;6.764;2022-11-04T06:13:52;6.53;;;6.13;;
2434;SDS011;1228;51.022;6.764;2022-11-04T06:16:19;6.93;;;6.03;;
2434;SDS011;1228;51.022;6.764;2022-11-04T06:18:45;9.03;;;4.90;;
2434;SDS011;1228;51.022;6.764;2022-11-04T06:23:39;5.30;;;5.10;;
2434;SDS011;1228;51.022;6.764;2022-11-04T06:26:06;5.33;;;5.03;;
2434;SDS011;1228;51.022;6.764;2022-11-04T06:28:32;6.03;;;5.43;;
2434;SDS011;1228;51.022;6.764;2022-11-04T06:30:59;5.90;;;5.50;;
2434;SDS011;1228;51.022;6.764;2022-11-04T06:33:25;7.17;;;6.07;;
2434;SDS011;1228;51.022;6.764;2022-11-04T06:35:55;5.37;;;5.07;;
2434;SDS011;1228;51.022;6.764;2022-11-04T06:38:21;10.53;;;5.10;;
2434;SDS011;1228;51.022;6.764;2022-11-04T06:40:47;5.77;;;5.47;;
2434;SDS011;1228;51.022;6.764;2022-11-04T06:43:12;6.00;;;5.60;;
2434;SDS011;1228;51.022;6.764;2022-11-04T06:45:38;5.57;;;5.27;;
2434;SDS011;1228;51.022;6.764;2022-11-04T06:48:04;6.50;;;5.77;;
2434;SDS011;1228;51.022;6.764;2022-11-04T06:50:29;5.67;;;5.37;;
2434;SDS011;1228;51.022;6.764;2022-11-04T06:52:55;6.77;;;6.27;;
2434;SDS011;1228;51.022;6.764;2022-11-04T06:55:21;6.37;;;6.07;;
2434;SDS011;1228;51.022;6.764;2022-11-04T06:57:46;7.80;;;7.33;;
2434;SDS011;1228;51.022;6.764;2022-11-04T07:00:12;7.50;;;7.00;;
2434;SDS011;1228;51.022;6.764;2022-11-04T07:02:38;7.47;;;7.07;;
2434;SDS011;1228;51.022;6.764;2022-11-04T07:05:04;8.00;;;7.40;;
2434;SDS011;1228;51.022;6.764;2022-11-04T07:07:30;7.73;;;7.23;;
2434;SDS011;1228;51.022;6.764;2022-11-04T07:09:56;7.37;;;6.93;;
2434;SDS011;1228;51.022;6.764;2022-11-04T07:12:22;8.43;;;7.83;;
2434;SDS011;1228;51.022;6.764;2022-11-04T07:14:48;9.40;;;7.53;;
2434;SDS011;1228;51.022;6.764;2022-11-04T07:17:19;8.37;;;7.60;;
2434;SDS011;1228;51.022;6.764;2022-11-04T07:19:45;8.60;;;6.90;;
2434;SDS011;1228;51.022;6.764;2022-11-04T07:22:10;6.43;;;6.03;;
2434;SDS011;1228;51.022;6.764;2022-11-04T07:24:36;6.70;;;6.20;;
2434;SDS011;1228;51.022;6.764;2022-11-04T07:27:02;7.17;;;6.67;;
2434;SDS011;1228;51.022;6.764;2022-11-04T07:29:28;9.80;;;6.17;;
2434;SDS011;1228;51.022;6.764;2022-11-04T07:31:53;7.47;;;6.30;;
2434;SDS011;1228;51.022;6.764;2022-11-04T07:34:19;5.80;;;5.50;;
2434;SDS011;1228;51.022;6.764;2022-11-04T07:36:44;6.07;;;5.57;;
2434;SDS011;1228;51.022;6.764;2022-11-04T07:39:10;6.13;;;5.70;;
2434;SDS011;1228;51.022;6.764;2022-11-04T07:41:35;7.53;;;6.87;;
2434;SDS011;1228;51.022;6.764;2022-11-04T07:44:01;6.40;;;6.00;;
2434;SDS011;1228;51.022;6.764;2022-11-04T07:46:29;6.87;;;6.33;;
2434;SDS011;1228;51.022;6.764;2022-11-04T07:48:58;6.63;;;6.13;;
2434;SDS011;1228;51.022;6.764;2022-11-04T07:51:24;11.40;;;8.03;;
2434;SDS011;1228;51.022;6.764;2022-11-04T07:53:50;7.63;;;7.23;;
2434;SDS011;1228;51.022;6.764;2022-11-04T07:56:16;7.67;;;7.07;;
2434;SDS011;1228;51.022;6.764;2022-11-04T07:58:43;10.77;;;7.30;;
2434;SDS011;1228;51.022;6.764;2022-11-04T08:01:10;7.50;;;7.00;;
2434;SDS011;1228;51.022;6.764;2022-11-04T08:03:37;6.77;;;6.30;;
2434;SDS011;1228;51.022;6.764;2022-11-04T08:06:04;6.63;;;6.23;;
2434;SDS011;1228;51.022;6.764;2022-11-04T08:08:31;7.37;;;6.13;;
2434;SDS011;1228;51.022;6.764;2022-11-04T08:10:58;10.47;;;6.53;;
2434;SDS011;1228;51.022;6.764;2022-11-04T08:13:26;9.33;;;6.70;;
2434;SDS011;1228;51.022;6.764;2022-11-04T08:15:53;6.50;;;6.10;;
2434;SDS011;1228;51.022;6.764;2022-11-04T08:18:19;7.40;;;6.70;;
2434;SDS011;1228;51.022;6.764;2022-11-04T08:20:50;6.60;;;6.10;;
2434;SDS011;1228;51.022;6.764;2022-11-04T08:23:16;8.40;;;6.13;;
2434;SDS011;1228;51.022;6.764;2022-11-04T08:25:42;7.43;;;5.60;;
2434;SDS011;1228;51.022;6.764;2022-11-04T08:28:08;6.23;;;5.63;;
2434;SDS011;1228;51.022;6.764;2022-11-04T08:30:41;5.53;;;5.13;;
2434;SDS011;1228;51.022;6.764;2022-11-04T08:33:27;5.43;;;5.10;;
2434;SDS011;1228;51.022;6.764;2022-11-04T08:35:54;6.73;;;6.23;;
2434;SDS011;1228;51.022;6.764;2022-11-04T08:38:20;9.77;;;5.60;;
2434;SDS011;1228;51.022;6.764;2022-11-04T08:40:46;7.03;;;5.83;;
2434;SDS011;1228;51.022;6.764;2022-11-04T08:43:12;6.23;;;5.70;;
2434;SDS011;1228;51.022;6.764;2022-11-04T08:45:41;6.07;;;5.50;;
2434;SDS011;1228;51.022;6.764;2022-11-04T08:48:09;5.90;;;5.40;;
2434;SDS011;1228;51.022;6.764;2022-11-04T08:50:35;6.43;;;5.33;;
2434;SDS011;1228;51.022;6.764;2022-11-04T08:53:01;6.87;;;5.30;;
2434;SDS011;1228;51.022;6.764;2022-11-04T08:55:28;6.73;;;5.07;;
2434;SDS011;1228;51.022;6.764;2022-11-04T08:57:54;6.00;;;5.27;;
2434;SDS011;1228;51.022;6.764;2022-11-04T09:00:20;5.60;;;4.97;;
2434;SDS011;1228;51.022;6.764;2022-11-04T09:02:45;5.23;;;4.93;;
2434;SDS011;1228;51.022;6.764;2022-11-04T09:05:11;5.20;;;4.80;;
2434;SDS011;1228;51.022;6.764;2022-11-04T09:07:38;5.50;;;5.10;;
2434;SDS011;1228;51.022;6.764;2022-11-04T09:10:05;6.10;;;4.70;;
2434;SDS011;1228;51.022;6.764;2022-11-04T09:12:31;8.33;;;5.03;;
2434;SDS011;1228;51.022;6.764;2022-11-04T09:14:58;5.23;;;4.83;;
2434;SDS011;1228;51.022;6.764;2022-11-04T09:17:23;7.33;;;5.17;;
2434;SDS011;1228;51.022;6.764;2022-11-04T09:19:49;5.73;;;5.23;;
2434;SDS011;1228;51.022;6.764;2022-11-04T09:22:15;5.27;;;4.77;;
2434;SDS011;1228;51.022;6.764;2022-11-04T09:24:40;5.13;;;4.73;;
2434;SDS011;1228;51.022;6.764;2022-11-04T09:27:06;5.43;;;4.47;;
2434;SDS011;1228;51.022;6.764;2022-11-04T09:29:32;4.77;;;4.37;;
2434;SDS011;1228;51.022;6.764;2022-11-04T09:32:00;4.87;;;4.57;;
2434;SDS011;1228;51.022;6.764;2022-11-04T09:34:26;6.50;;;5.13;;
2434;SDS011;1228;51.022;6.764;2022-11-04T09:36:55;4.20;;;3.90;;
2434;SDS011;1228;51.022;6.764;2022-11-04T09:39:22;5.37;;;4.13;;
2434;SDS011;1228;51.022;6.764;2022-11-04T09:44:52;3.57;;;3.37;;
2434;SDS011;1228;51.022;6.764;2022-11-04T09:47:25;3.97;;;3.60;;
2434;SDS011;1228;51.022;6.764;2022-11-04T09:49:52;4.10;;;3.70;;
2434;SDS011;1228;51.022;6.764;2022-11-04T09:52:26;4.53;;;4.13;;
2434;SDS011;1228;51.022;6.764;2022-11-04T09:54:57;4.90;;;3.23;;
2434;SDS011;1228;51.022;6.764;2022-11-04T09:57:44;5.97;;;3.53;;
2434;SDS011;1228;51.022;6.764;2022-11-04T10:00:15;5.30;;;3.90;;
2434;SDS011;1228;51.022;6.764;2022-11-04T10:18:31;3.67;;;3.40;;
2434;SDS011;1228;51.022;6.764;2022-11-04T10:29:28;4.30;;;3.90;;
2434;SDS011;1228;51.022;6.764;2022-11-04T10:34:45;5.27;;;4.53;;
2434;SDS011;1228;51.022;6.764;2022-11-04T10:37:16;4.40;;;4.13;;
2434;SDS011;1228;51.022;6.764;2022-11-04T10:39:43;4.70;;;4.30;;
2434;SDS011;1228;51.022;6.764;2022-11-04T10:42:10;5.37;;;4.43;;
2434;SDS011;1228;51.022;6.764;2022-11-04T10:44:38;5.90;;;5.50;;
2434;SDS011;1228;51.022;6.764;2022-11-04T10:52:42;4.83;;;4.53;;
2434;SDS011;1228;51.022;6.764;2022-11-04T10:55:13;4.97;;;4.37;;
2434;SDS011;1228;51.022;6.764;2022-11-04T10:57:55;5.37;;;4.97;;
2434;SDS011;1228;51.022;6.764;2022-11-04T11:00:31;4.77;;;4.37;;
2434;SDS011;1228;51.022;6.764;2022-11-04T11:02:58;5.53;;;5.07;;
2434;SDS011;1228;51.022;6.764;2022-11-04T11:05:24;6.13;;;5.57;;
2434;SDS011;1228;51.022;6.764;2022-11-04T11:07:51;4.73;;;4.30;;
2434;SDS011;1228;51.022;6.764;2022-11-04T11:10:20;5.07;;;4.47;;
2434;SDS011;1228;51.022;6.764;2022-11-04T11:12:51;4.10;;;3.90;;
2434;SDS011;1228;51.022;6.764;2022-11-04T11:20:31;4.33;;;4.07;;
2434;SDS011;1228;51.022;6.764;2022-11-04T11:23:01;5.23;;;4.00;;
2434;SDS011;1228;51.022;6.764;2022-11-04T11:25:33;7.67;;;4.60;;
2434;SDS011;1228;51.022;6.764;2022-11-04T11:28:19;4.67;;;4.27;;
2434;SDS011;1228;51.022;6.764;2022-11-04T11:33:22;4.63;;;4.33;;
2434;SDS011;1228;51.022;6.764;2022-11-04T11:38:21;5.10;;;4.80;;
2434;SDS011;1228;51.022;6.764;2022-11-04T11:40:50;7.57;;;5.83;;
2434;SDS011;1228;51.022;6.764;2022-11-04T11:43:23;5.87;;;5.23;;
2434;SDS011;1228;51.022;6.764;2022-11-04T11:45:55;5.17;;;4.70;;
2434;SDS011;1228;51.022;6.764;2022-11-04T11:48:42;3.70;;;3.50;;
2434;SDS011;1228;51.022;6.764;2022-11-04T11:51:16;4.50;;;4.10;;
2434;SDS011;1228;51.022;6.764;2022-11-04T11:56:32;4.50;;;4.20;;
2434;SDS011;1228;51.022;6.764;2022-11-04T11:59:05;4.37;;;4.13;;
2434;SDS011;1228;51.022;6.764;2022-11-04T12:01:41;4.57;;;4.03;;
2434;SDS011;1228;51.022;6.764;2022-11-04T12:04:14;3.87;;;3.57;;
2434;SDS011;1228;51.022;6.764;2022-11-04T12:06:55;3.97;;;3.63;;
2434;SDS011;1228;51.022;6.764;2022-11-04T12:20:18;4.63;;;3.90;;
2434;SDS011;1228;51.022;6.764;2022-11-04T12:34:01;4.13;;;3.93;;
2434;SDS011;1228;51.022;6.764;2022-11-04T12:42:20;6.37;;;5.97;;
2434;SDS011;1228;51.022;6.764;2022-11-04T12:48:06;6.40;;;5.90;;
2434;SDS011;1228;51.022;6.764;2022-11-04T12:53:59;3.93;;;3.67;;
2434;SDS011;1228;51.022;6.764;2022-11-04T12:56:21;4.40;;;4.03;;
2434;SDS011;1228;51.022;6.764;2022-11-04T13:02:44;6.50;;;6.20;;
2434;SDS011;1228;51.022;6.764;2022-11-04T13:05:04;4.90;;;4.60;;
2434;SDS011;1228;51.022;6.764;2022-11-04T13:07:32;4.17;;;3.97;;
2434;SDS011;1228;51.022;6.764;2022-11-04T13:10:20;4.17;;;3.97;;
2434;SDS011;1228;51.022;6.764;2022-11-04T13:12:51;5.93;;;4.30;;
2434;SDS011;1228;51.022;6.764;2022-11-04T13:15:21;4.47;;;4.17;;
2434;SDS011;1228;51.022;6.764;2022-11-04T13:17:51;4.90;;;3.83;;
2434;SDS011;1228;51.022;6.764;2022-11-04T13:23:22;4.20;;;3.90;;
2434;SDS011;1228;51.022;6.764;2022-11-04T13:26:10;4.03;;;3.70;;
2434;SDS011;1228;51.022;6.764;2022-11-04T13:28:41;4.07;;;3.77;;
2434;SDS011;1228;51.022;6.764;2022-11-04T13:36:32;7.07;;;4.37;;
2434;SDS011;1228;51.022;6.764;2022-11-04T13:39:24;5.20;;;3.87;;
2434;SDS011;1228;51.022;6.764;2022-11-04T13:42:19;4.43;;;4.13;;
2434;SDS011;1228;51.022;6.764;2022-11-04T13:45:02;4.70;;;4.40;;
2434;SDS011;1228;51.022;6.764;2022-11-04T13:47:34;4.97;;;4.47;;
2434;SDS011;1228;51.022;6.764;2022-11-04T13:50:01;5.63;;;5.07;;
2434;SDS011;1228;51.022;6.764;2022-11-04T13:52:32;4.77;;;4.43;;
2434;SDS011;1228;51.022;6.764;2022-11-04T13:55:01;5.40;;;5.00;;
2434;SDS011;1228;51.022;6.764;2022-11-04T13:57:30;6.17;;;4.63;;
2434;SDS011;1228;51.022;6.764;2022-11-04T14:02:40;4.60;;;4.10;;
2434;SDS011;1228;51.022;6.764;2022-11-04T14:18:27;4.40;;;4.10;;
2434;SDS011;1228;51.022;6.764;2022-11-04T14:21:01;5.10;;;4.63;;
2434;SDS011;1228;51.022;6.764;2022-11-04T14:23:32;4.87;;;4.47;;
2434;SDS011;1228;51.022;6.764;2022-11-04T14:26:02;5.73;;;5.13;;
2434;SDS011;1228;51.022;6.764;2022-11-04T14:28:35;5.60;;;4.47;;
2434;SDS011;1228;51.022;6.764;2022-11-04T14:31:03;4.40;;;4.20;;
2434;SDS011;1228;51.022;6.764;2022-11-04T14:38:55;5.70;;;5.30;;
2434;SDS011;1228;51.022;6.764;2022-11-04T14:44:07;5.17;;;4.87;;
2434;SDS011;1228;51.022;6.764;2022-11-04T14:46:45;5.43;;;5.13;;
2434;SDS011;1228;51.022;6.764;2022-11-04T14:52:16;5.30;;;4.83;;
2434;SDS011;1228;51.022;6.764;2022-11-04T14:54:48;5.63;;;4.80;;
2434;SDS011;1228;51.022;6.764;2022-11-04T14:57:41;5.67;;;5.00;;
2434;SDS011;1228;51.022;6.764;2022-11-04T15:00:26;4.60;;;4.27;;
2434;SDS011;1228;51.022;6.764;2022-11-04T15:03:38;4.83;;;4.43;;
2434;SDS011;1228;51.022;6.764;2022-11-04T15:05:48;5.10;;;4.73;;
2434;SDS011;1228;51.022;6.764;2022-11-04T15:11:09;5.20;;;4.90;;
2434;SDS011;1228;51.022;6.764;2022-11-04T15:14:09;5.87;;;5.27;;
2434;SDS011;1228;51.022;6.764;2022-11-04T15:16:42;9.10;;;5.20;;
2434;SDS011;1228;51.022;6.764;2022-11-04T15:19:10;5.73;;;5.33;;
2434;SDS011;1228;51.022;6.764;2022-11-04T15:21:39;6.80;;;5.07;;
2434;SDS011;1228;51.022;6.764;2022-11-04T15:24:08;6.33;;;5.83;;
2434;SDS011;1228;51.022;6.764;2022-11-04T15:26:40;5.60;;;5.30;;
2434;SDS011;1228;51.022;6.764;2022-11-04T15:29:07;6.13;;;5.73;;
2434;SDS011;1228;51.022;6.764;2022-11-04T15:31:36;7.17;;;6.57;;
2434;SDS011;1228;51.022;6.764;2022-11-04T15:34:04;6.73;;;5.43;;
2434;SDS011;1228;51.022;6.764;2022-11-04T15:36:32;6.50;;;5.87;;
2434;SDS011;1228;51.022;6.764;2022-11-04T15:39:46;5.10;;;4.73;;
2434;SDS011;1228;51.022;6.764;2022-11-04T15:41:54;6.33;;;5.47;;
2434;SDS011;1228;51.022;6.764;2022-11-04T15:44:50;6.00;;;5.60;;
2434;SDS011;1228;51.022;6.764;2022-11-04T15:49:43;8.20;;;5.50;;
2434;SDS011;1228;51.022;6.764;2022-11-04T15:52:20;14.83;;;6.20;;
2434;SDS011;1228;51.022;6.764;2022-11-04T15:54:48;5.60;;;5.17;;
2434;SDS011;1228;51.022;6.764;2022-11-04T15:57:22;6.20;;;5.60;;
2434;SDS011;1228;51.022;6.764;2022-11-04T15:59:54;5.57;;;5.07;;
2434;SDS011;1228;51.022;6.764;2022-11-04T16:02:55;6.00;;;5.40;;
2434;SDS011;1228;51.022;6.764;2022-11-04T16:05:27;6.13;;;5.50;;
2434;SDS011;1228;51.022;6.764;2022-11-04T16:08:15;7.30;;;5.00;;
2434;SDS011;1228;51.022;6.764;2022-11-04T16:10:44;7.13;;;5.50;;
2434;SDS011;1228;51.022;6.764;2022-11-04T16:15:47;9.03;;;5.23;;
2434;SDS011;1228;51.022;6.764;2022-11-04T16:18:48;6.53;;;6.00;;
2434;SDS011;1228;51.022;6.764;2022-11-04T16:21:20;6.03;;;5.13;;
2434;SDS011;1228;51.022;6.764;2022-11-04T16:23:56;8.00;;;4.90;;
2434;SDS011;1228;51.022;6.764;2022-11-04T16:26:25;11.93;;;6.10;;
2434;SDS011;1228;51.022;6.764;2022-11-04T16:28:54;9.87;;;6.57;;
2434;SDS011;1228;51.022;6.764;2022-11-04T16:33:52;10.17;;;7.57;;
2434;SDS011;1228;51.022;6.764;2022-11-04T16:36:18;7.40;;;6.63;;
2434;SDS011;1228;51.022;6.764;2022-11-04T16:38:59;8.07;;;6.10;;
2434;SDS011;1228;51.022;6.764;2022-11-04T16:41:32;10.33;;;7.23;;
2434;SDS011;1228;51.022;6.764;2022-11-04T16:44:00;6.83;;;6.33;;
2434;SDS011;1228;51.022;6.764;2022-11-04T16:46:27;7.00;;;6.57;;
2434;SDS011;1228;51.022;6.764;2022-11-04T16:48:53;7.70;;;7.00;;
2434;SDS011;1228;51.022;6.764;2022-11-04T16:51:20;8.73;;;7.27;;
2434;SDS011;1228;51.022;6.764;2022-11-04T16:53:47;7.53;;;6.63;;
2434;SDS011;1228;51.022;6.764;2022-11-04T16:56:15;16.43;;;7.07;;
2434;SDS011;1228;51.022;6.764;2022-11-04T16:58:41;10.70;;;6.80;;
2434;SDS011;1228;51.022;6.764;2022-11-04T17:01:09;6.00;;;5.70;;
2434;SDS011;1228;51.022;6.764;2022-11-04T17:03:37;7.27;;;6.67;;
2434;SDS011;1228;51.022;6.764;2022-11-04T17:06:02;7.53;;;6.93;;
2434;SDS011;1228;51.022;6.764;2022-11-04T17:08:28;11.20;;;6.87;;
2434;SDS011;1228;51.022;6.764;2022-11-04T17:10:54;7.73;;;7.30;;
2434;SDS011;1228;51.022;6.764;2022-11-04T17:13:19;10.60;;;7.87;;
2434;SDS011;1228;51.022;6.764;2022-11-04T17:15:45;7.40;;;6.80;;
2434;SDS011;1228;51.022;6.764;2022-11-04T17:18:12;7.17;;;6.53;;
2434;SDS011;1228;51.022;6.764;2022-11-04T17:20:39;8.03;;;6.63;;
2434;SDS011;1228;51.022;6.764;2022-11-04T17:23:06;11.37;;;7.27;;
2434;SDS011;1228;51.022;6.764;2022-11-04T17:25:33;10.03;;;8.20;;
2434;SDS011;1228;51.022;6.764;2022-11-04T17:27:58;8.03;;;6.80;;
2434;SDS011;1228;51.022;6.764;2022-11-04T17:30:24;8.57;;;7.77;;
2434;SDS011;1228;51.022;6.764;2022-11-04T17:32:49;9.27;;;8.17;;
2434;SDS011;1228;51.022;6.764;2022-11-04T17:35:16;9.47;;;6.83;;
2434;SDS011;1228;51.022;6.764;2022-11-04T17:37:42;9.07;;;7.50;;
2434;SDS011;1228;51.022;6.764;2022-11-04T17:40:11;8.60;;;7.60;;
2434;SDS011;1228;51.022;6.764;2022-11-04T17:42:39;11.03;;;7.47;;
2434;SDS011;1228;51.022;6.764;2022-11-04T17:45:23;10.53;;;7.20;;
2434;SDS011;1228;51.022;6.764;2022-11-04T17:47:49;7.00;;;6.60;;
2434;SDS011;1228;51.022;6.764;2022-11-04T17:50:15;8.60;;;7.70;;
2434;SDS011;1228;51.022;6.764;2022-11-04T17:52:40;10.30;;;7.07;;
2434;SDS011;1228;51.022;6.764;2022-11-04T17:55:06;7.50;;;6.90;;
2434;SDS011;1228;51.022;6.764;2022-11-04T17:57:33;11.63;;;7.90;;
2434;SDS011;1228;51.022;6.764;2022-11-04T17:59:59;21.43;;;7.93;;
2434;SDS011;1228;51.022;6.764;2022-11-04T18:02:25;8.77;;;7.77;;
2434;SDS011;1228;51.022;6.764;2022-11-04T18:04:51;8.83;;;8.03;;
2434;SDS011;1228;51.022;6.764;2022-11-04T18:07:16;9.37;;;8.30;;
2434;SDS011;1228;51.022;6.764;2022-11-04T18:09:43;13.13;;;8.57;;
2434;SDS011;1228;51.022;6.764;2022-11-04T18:12:08;16.20;;;8.97;;
2434;SDS011;1228;51.022;6.764;2022-11-04T18:14:52;17.07;;;8.80;;
2434;SDS011;1228;51.022;6.764;2022-11-04T18:17:18;9.87;;;8.17;;
2434;SDS011;1228;51.022;6.764;2022-11-04T18:19:48;16.63;;;10.13;;
2434;SDS011;1228;51.022;6.764;2022-11-04T18:22:17;8.67;;;7.80;;